Terminal Aerodrome Forecast
Issued by NWS

Home | Current Version | Previous Version | Text Only | Print | Product List | Glossary On
Versions: 1 2 3 4 5 6 7 8 9 10 11 12
000
FTUS45 KRIW 281100
TAFLND
TAF
KLND 281121Z 2812/2912 26006KT P6SM SCT080 BKN150
     FM281700 VRB06KT P6SM VCSH SCT050 BKN070
     FM282000 26011KT P6SM -SHRA VCTS SCT040 BKN060CB
     FM290200 33007KT P6SM -SHRA SCT030 OVC040
     FM290600 33007KT P6SM VCSH FEW008 SCT015 BKN030=

USA.gov is the U.S. government's official web portal to all federal, state and local government web resources and services.